sensor_id;sensor_type;location;lat;lon;timestamp;P1;P2;P0
65383;PMS5003;51986;52.788;41.368;2023-12-20T00:01:34;24.00;22.00;19.00
65383;PMS5003;51986;52.788;41.368;2023-12-20T00:04:01;24.50;22.25;18.00
65383;PMS5003;51986;52.788;41.368;2023-12-20T00:06:29;26.00;23.50;19.00
65383;PMS5003;51986;52.788;41.368;2023-12-20T00:08:57;22.00;21.00;18.00
65383;PMS5003;51986;52.788;41.368;2023-12-20T00:11:24;20.00;20.00;17.00
65383;PMS5003;51986;52.788;41.368;2023-12-20T00:13:51;20.00;20.00;16.00
65383;PMS5003;51986;52.788;41.368;2023-12-20T00:16:18;24.00;22.00;18.00
65383;PMS5003;51986;52.788;41.368;2023-12-20T00:18:45;27.00;24.00;19.00
65383;PMS5003;51986;52.788;41.368;2023-12-20T00:21:13;27.00;24.00;19.00
65383;PMS5003;51986;52.788;41.368;2023-12-20T00:23:40;23.75;22.00;18.00
65383;PMS5003;51986;52.788;41.368;2023-12-20T00:26:07;23.50;22.00;18.00
65383;PMS5003;51986;52.788;41.368;2023-12-20T00:28:34;26.00;23.50;19.00
65383;PMS5003;51986;52.788;41.368;2023-12-20T00:31:01;22.00;21.00;18.00
65383;PMS5003;51986;52.788;41.368;2023-12-20T00:33:28;18.75;18.00;16.00
65383;PMS5003;51986;52.788;41.368;2023-12-20T00:35:55;25.00;22.50;19.00
65383;PMS5003;51986;52.788;41.368;2023-12-20T00:38:22;25.00;22.00;19.00
65383;PMS5003;51986;52.788;41.368;2023-12-20T00:40:49;20.25;20.00;17.00
65383;PMS5003;51986;52.788;41.368;2023-12-20T00:43:16;22.25;21.00;17.75
65383;PMS5003;51986;52.788;41.368;2023-12-20T00:45:43;21.00;20.00;18.00
65383;PMS5003;51986;52.788;41.368;2023-12-20T00:48:10;20.00;20.00;16.00
65383;PMS5003;51986;52.788;41.368;2023-12-20T00:50:38;19.00;19.00;16.00
65383;PMS5003;51986;52.788;41.368;2023-12-20T00:53:04;23.75;22.00;18.00
65383;PMS5003;51986;52.788;41.368;2023-12-20T00:55:31;22.00;21.00;18.00
65383;PMS5003;51986;52.788;41.368;2023-12-20T00:57:58;20.00;20.00;17.00
65383;PMS5003;51986;52.788;41.368;2023-12-20T01:00:26;24.75;22.50;19.25
65383;PMS5003;51986;52.788;41.368;2023-12-20T01:02:52;28.00;23.00;20.00
65383;PMS5003;51986;52.788;41.368;2023-12-20T01:05:20;23.25;21.75;18.00
65383;PMS5003;51986;52.788;41.368;2023-12-20T01:07:47;25.00;23.00;18.00
65383;PMS5003;51986;52.788;41.368;2023-12-20T01:10:14;27.75;25.00;20.00
65383;PMS5003;51986;52.788;41.368;2023-12-20T01:12:41;21.00;20.00;18.00
65383;PMS5003;51986;52.788;41.368;2023-12-20T01:15:09;24.25;22.25;18.50
65383;PMS5003;51986;52.788;41.368;2023-12-20T01:17:36;21.00;20.00;17.00
65383;PMS5003;51986;52.788;41.368;2023-12-20T01:20:04;23.25;21.75;18.00
65383;PMS5003;51986;52.788;41.368;2023-12-20T01:22:32;20.00;20.00;17.00
65383;PMS5003;51986;52.788;41.368;2023-12-20T01:24:59;20.00;20.00;17.00
65383;PMS5003;51986;52.788;41.368;2023-12-20T01:27:26;20.00;20.00;16.50
65383;PMS5003;51986;52.788;41.368;2023-12-20T01:29:53;26.25;23.25;19.75
65383;PMS5003;51986;52.788;41.368;2023-12-20T01:32:20;22.00;20.50;18.00
65383;PMS5003;51986;52.788;41.368;2023-12-20T01:34:47;20.00;20.00;17.00
65383;PMS5003;51986;52.788;41.368;2023-12-20T01:37:15;24.25;22.25;18.00
65383;PMS5003;51986;52.788;41.368;2023-12-20T01:39:42;27.00;24.00;20.00
65383;PMS5003;51986;52.788;41.368;2023-12-20T01:42:09;23.00;21.25;18.00
65383;PMS5003;51986;52.788;41.368;2023-12-20T01:44:36;21.00;20.00;17.00
65383;PMS5003;51986;52.788;41.368;2023-12-20T01:47:03;20.00;20.00;16.00
65383;PMS5003;51986;52.788;41.368;2023-12-20T01:49:30;23.50;21.50;18.50
65383;PMS5003;51986;52.788;41.368;2023-12-20T01:51:58;23.00;21.00;18.00
65383;PMS5003;51986;52.788;41.368;2023-12-20T01:54:25;20.00;20.00;17.00
65383;PMS5003;51986;52.788;41.368;2023-12-20T01:56:52;25.75;23.50;20.00
65383;PMS5003;51986;52.788;41.368;2023-12-20T01:59:19;27.25;24.25;20.50
65383;PMS5003;51986;52.788;41.368;2023-12-20T02:01:47;23.00;21.00;19.00
65383;PMS5003;51986;52.788;41.368;2023-12-20T02:04:15;21.00;20.50;18.00
65383;PMS5003;51986;52.788;41.368;2023-12-20T02:06:42;20.00;20.00;17.00
65383;PMS5003;51986;52.788;41.368;2023-12-20T02:09:12;19.00;19.00;16.00
65383;PMS5003;51986;52.788;41.368;2023-12-20T02:11:41;21.00;20.00;16.00
65383;PMS5003;51986;52.788;41.368;2023-12-20T02:14:08;25.50;23.50;19.50
65383;PMS5003;51986;52.788;41.368;2023-12-20T02:16:35;23.00;22.00;18.00
65383;PMS5003;51986;52.788;41.368;2023-12-20T02:19:03;21.00;21.00;17.00
65383;PMS5003;51986;52.788;41.368;2023-12-20T02:21:34;23.00;21.50;18.50
65383;PMS5003;51986;52.788;41.368;2023-12-20T02:24:01;26.25;23.25;19.00
65383;PMS5003;51986;52.788;41.368;2023-12-20T02:26:32;21.00;20.75;18.00
65383;PMS5003;51986;52.788;41.368;2023-12-20T02:29:00;22.75;21.00;18.00
65383;PMS5003;51986;52.788;41.368;2023-12-20T02:31:27;20.00;20.00;17.00
65383;PMS5003;51986;52.788;41.368;2023-12-20T02:33:54;21.25;20.25;17.00
65383;PMS5003;51986;52.788;41.368;2023-12-20T02:36:22;21.00;21.00;18.00
65383;PMS5003;51986;52.788;41.368;2023-12-20T02:38:49;20.00;20.00;17.00
65383;PMS5003;51986;52.788;41.368;2023-12-20T02:41:16;25.50;23.25;19.50
65383;PMS5003;51986;52.788;41.368;2023-12-20T02:43:43;25.00;23.00;19.00
65383;PMS5003;51986;52.788;41.368;2023-12-20T02:46:10;22.00;21.00;18.00
65383;PMS5003;51986;52.788;41.368;2023-12-20T02:48:38;25.50;23.25;19.00
65383;PMS5003;51986;52.788;41.368;2023-12-20T02:51:05;23.00;21.00;18.00
65383;PMS5003;51986;52.788;41.368;2023-12-20T02:53:32;20.00;19.00;16.00
65383;PMS5003;51986;52.788;41.368;2023-12-20T02:55:59;20.00;20.00;17.00
65383;PMS5003;51986;52.788;41.368;2023-12-20T02:58:26;21.00;20.00;17.00
65383;PMS5003;51986;52.788;41.368;2023-12-20T03:00:53;25.00;23.00;19.00
65383;PMS5003;51986;52.788;41.368;2023-12-20T03:03:21;27.00;24.00;20.00
65383;PMS5003;51986;52.788;41.368;2023-12-20T03:05:48;24.75;22.75;19.00
65383;PMS5003;51986;52.788;41.368;2023-12-20T03:08:15;26.50;24.00;20.00
65383;PMS5003;51986;52.788;41.368;2023-12-20T03:10:42;27.00;23.00;19.00
65383;PMS5003;51986;52.788;41.368;2023-12-20T03:13:09;21.25;21.00;18.00
65383;PMS5003;51986;52.788;41.368;2023-12-20T03:15:36;24.00;22.00;19.00
65383;PMS5003;51986;52.788;41.368;2023-12-20T03:18:03;22.00;21.00;18.00
65383;PMS5003;51986;52.788;41.368;2023-12-20T03:20:30;26.00;23.50;19.00
65383;PMS5003;51986;52.788;41.368;2023-12-20T03:22:58;24.00;22.00;19.00
65383;PMS5003;51986;52.788;41.368;2023-12-20T03:25:25;24.50;22.50;19.00
65383;PMS5003;51986;52.788;41.368;2023-12-20T03:27:52;23.25;22.00;18.50
65383;PMS5003;51986;52.788;41.368;2023-12-20T03:30:19;22.00;21.00;18.00
65383;PMS5003;51986;52.788;41.368;2023-12-20T03:32:46;21.00;20.00;17.00
65383;PMS5003;51986;52.788;41.368;2023-12-20T03:35:14;25.25;23.00;19.00
65383;PMS5003;51986;52.788;41.368;2023-12-20T03:37:41;28.00;25.00;19.00
65383;PMS5003;51986;52.788;41.368;2023-12-20T03:40:08;23.00;22.00;18.50
65383;PMS5003;51986;52.788;41.368;2023-12-20T03:42:36;21.00;20.00;17.00
65383;PMS5003;51986;52.788;41.368;2023-12-20T03:45:03;26.00;23.75;19.75
65383;PMS5003;51986;52.788;41.368;2023-12-20T03:47:30;25.00;23.00;19.00
65383;PMS5003;51986;52.788;41.368;2023-12-20T03:49:57;25.00;23.00;19.00
65383;PMS5003;51986;52.788;41.368;2023-12-20T03:52:25;23.00;21.00;18.25
65383;PMS5003;51986;52.788;41.368;2023-12-20T03:54:52;22.00;21.00;18.00
65383;PMS5003;51986;52.788;41.368;2023-12-20T03:57:19;22.75;21.00;18.00
65383;PMS5003;51986;52.788;41.368;2023-12-20T03:59:46;27.00;24.00;19.00
65383;PMS5003;51986;52.788;41.368;2023-12-20T04:02:13;23.00;21.00;18.00
65383;PMS5003;51986;52.788;41.368;2023-12-20T04:04:40;26.50;23.25;19.50
65383;PMS5003;51986;52.788;41.368;2023-12-20T04:07:07;28.00;25.00;20.00
65383;PMS5003;51986;52.788;41.368;2023-12-20T04:09:35;22.25;21.00;18.00
65383;PMS5003;51986;52.788;41.368;2023-12-20T04:12:01;27.00;23.75;19.25
65383;PMS5003;51986;52.788;41.368;2023-12-20T04:14:29;25.00;23.00;18.00
65383;PMS5003;51986;52.788;41.368;2023-12-20T04:16:56;23.00;21.00;18.00
65383;PMS5003;51986;52.788;41.368;2023-12-20T04:19:23;27.25;24.50;20.00
65383;PMS5003;51986;52.788;41.368;2023-12-20T04:21:50;27.00;24.00;20.00
65383;PMS5003;51986;52.788;41.368;2023-12-20T04:24:18;27.00;24.00;20.00
65383;PMS5003;51986;52.788;41.368;2023-12-20T04:26:45;28.75;25.75;21.00
65383;PMS5003;51986;52.788;41.368;2023-12-20T04:29:12;28.00;25.00;20.00
65383;PMS5003;51986;52.788;41.368;2023-12-20T04:31:39;30.00;26.00;21.00
65383;PMS5003;51986;52.788;41.368;2023-12-20T04:34:06;26.75;23.75;19.50
65383;PMS5003;51986;52.788;41.368;2023-12-20T04:36:33;27.00;24.00;20.00
65383;PMS5003;51986;52.788;41.368;2023-12-20T04:39:00;27.00;24.00;19.00
65383;PMS5003;51986;52.788;41.368;2023-12-20T04:41:27;25.75;23.75;19.50
65383;PMS5003;51986;52.788;41.368;2023-12-20T04:43:54;29.00;25.00;20.75
65383;PMS5003;51986;52.788;41.368;2023-12-20T04:46:21;25.50;23.00;19.00
65383;PMS5003;51986;52.788;41.368;2023-12-20T04:48:48;22.50;21.00;18.00
65383;PMS5003;51986;52.788;41.368;2023-12-20T04:51:15;26.75;23.75;19.75
65383;PMS5003;51986;52.788;41.368;2023-12-20T04:53:42;23.00;22.00;18.00
65383;PMS5003;51986;52.788;41.368;2023-12-20T04:56:10;25.25;22.75;19.00
65383;PMS5003;51986;52.788;41.368;2023-12-20T04:58:37;24.00;22.00;19.00
65383;PMS5003;51986;52.788;41.368;2023-12-20T05:01:05;27.25;24.75;20.25
65383;PMS5003;51986;52.788;41.368;2023-12-20T05:03:33;26.25;24.00;20.00
65383;PMS5003;51986;52.788;41.368;2023-12-20T05:06:00;30.00;25.00;20.50
65383;PMS5003;51986;52.788;41.368;2023-12-20T05:08:27;29.00;25.25;20.00
65383;PMS5003;51986;52.788;41.368;2023-12-20T05:10:54;30.50;26.00;21.00
65383;PMS5003;51986;52.788;41.368;2023-12-20T05:13:21;30.00;25.50;20.50
65383;PMS5003;51986;52.788;41.368;2023-12-20T05:15:59;30.50;26.50;21.00
65383;PMS5003;51986;52.788;41.368;2023-12-20T05:18:26;30.25;26.00;21.00
65383;PMS5003;51986;52.788;41.368;2023-12-20T05:20:53;25.50;23.00;18.00
65383;PMS5003;51986;52.788;41.368;2023-12-20T05:23:24;27.00;24.00;19.50
65383;PMS5003;51986;52.788;41.368;2023-12-20T05:25:52;28.75;25.00;20.00
65383;PMS5003;51986;52.788;41.368;2023-12-20T05:28:19;29.00;25.00;21.00
65383;PMS5003;51986;52.788;41.368;2023-12-20T05:30:46;26.75;23.50;19.00
65383;PMS5003;51986;52.788;41.368;2023-12-20T05:33:13;27.75;24.00;19.00
65383;PMS5003;51986;52.788;41.368;2023-12-20T05:35:41;29.00;25.00;20.00
65383;PMS5003;51986;52.788;41.368;2023-12-20T05:38:08;27.75;23.75;19.00
65383;PMS5003;51986;52.788;41.368;2023-12-20T05:40:35;29.00;24.00;19.00
65383;PMS5003;51986;52.788;41.368;2023-12-20T05:43:02;31.00;26.50;20.75
65383;PMS5003;51986;52.788;41.368;2023-12-20T05:45:29;28.50;24.25;20.00
65383;PMS5003;51986;52.788;41.368;2023-12-20T05:47:56;24.00;22.00;18.00
65383;PMS5003;51986;52.788;41.368;2023-12-20T05:50:23;23.00;21.00;18.00
65383;PMS5003;51986;52.788;41.368;2023-12-20T05:52:50;22.50;21.00;17.75
65383;PMS5003;51986;52.788;41.368;2023-12-20T05:55:17;21.00;20.50;18.00
65383;PMS5003;51986;52.788;41.368;2023-12-20T05:57:44;24.75;22.75;19.00
65383;PMS5003;51986;52.788;41.368;2023-12-20T06:00:12;28.75;24.00;20.00
65383;PMS5003;51986;52.788;41.368;2023-12-20T06:02:40;27.00;24.00;20.00
65383;PMS5003;51986;52.788;41.368;2023-12-20T06:05:07;28.00;25.00;20.00
65383;PMS5003;51986;52.788;41.368;2023-12-20T06:07:34;23.00;21.00;18.50
65383;PMS5003;51986;52.788;41.368;2023-12-20T06:10:02;27.00;23.75;20.00
65383;PMS5003;51986;52.788;41.368;2023-12-20T06:12:29;26.00;24.00;19.00
65383;PMS5003;51986;52.788;41.368;2023-12-20T06:14:56;25.00;23.00;19.00
65383;PMS5003;51986;52.788;41.368;2023-12-20T06:17:23;27.00;24.00;19.00
65383;PMS5003;51986;52.788;41.368;2023-12-20T06:19:50;23.00;21.00;17.00
65383;PMS5003;51986;52.788;41.368;2023-12-20T06:22:17;24.75;22.00;18.00
65383;PMS5003;51986;52.788;41.368;2023-12-20T06:24:44;28.00;24.00;19.00
65383;PMS5003;51986;52.788;41.368;2023-12-20T06:27:11;23.00;22.00;19.00
65383;PMS5003;51986;52.788;41.368;2023-12-20T06:29:39;27.50;23.50;19.00
65383;PMS5003;51986;52.788;41.368;2023-12-20T06:32:06;27.00;23.00;19.00
65383;PMS5003;51986;52.788;41.368;2023-12-20T06:34:33;28.50;24.25;19.75
65383;PMS5003;51986;52.788;41.368;2023-12-20T06:37:00;27.00;24.00;19.00
65383;PMS5003;51986;52.788;41.368;2023-12-20T06:39:27;26.75;23.00;19.00
65383;PMS5003;51986;52.788;41.368;2023-12-20T06:41:54;25.00;22.00;18.00
65383;PMS5003;51986;52.788;41.368;2023-12-20T06:44:21;27.00;24.00;19.50
65383;PMS5003;51986;52.788;41.368;2023-12-20T06:46:48;28.75;25.50;21.00
65383;PMS5003;51986;52.788;41.368;2023-12-20T06:49:15;30.50;26.50;21.00
65383;PMS5003;51986;52.788;41.368;2023-12-20T06:51:43;27.25;24.25;20.00
65383;PMS5003;51986;52.788;41.368;2023-12-20T06:54:10;29.50;25.50;21.00
65383;PMS5003;51986;52.788;41.368;2023-12-20T06:56:37;30.00;25.00;21.00
65383;PMS5003;51986;52.788;41.368;2023-12-20T06:59:04;29.75;25.00;20.00
65383;PMS5003;51986;52.788;41.368;2023-12-20T07:01:31;28.00;24.75;19.00
65383;PMS5003;51986;52.788;41.368;2023-12-20T07:03:59;30.00;25.50;21.00
65383;PMS5003;51986;52.788;41.368;2023-12-20T07:06:26;30.50;26.00;21.00
65383;PMS5003;51986;52.788;41.368;2023-12-20T07:08:53;32.25;26.25;21.00
65383;PMS5003;51986;52.788;41.368;2023-12-20T07:11:20;31.00;26.00;21.00
65383;PMS5003;51986;52.788;41.368;2023-12-20T07:13:47;30.50;26.00;21.00
65383;PMS5003;51986;52.788;41.368;2023-12-20T07:16:15;30.00;26.00;21.00
65383;PMS5003;51986;52.788;41.368;2023-12-20T07:18:42;30.00;26.00;21.00
65383;PMS5003;51986;52.788;41.368;2023-12-20T07:21:09;30.00;26.00;21.00
65383;PMS5003;51986;52.788;41.368;2023-12-20T07:23:36;29.00;25.00;20.00
65383;PMS5003;51986;52.788;41.368;2023-12-20T07:26:03;30.00;26.00;21.00
65383;PMS5003;51986;52.788;41.368;2023-12-20T07:28:30;27.00;24.00;19.00
65383;PMS5003;51986;52.788;41.368;2023-12-20T07:31:00;28.00;24.75;20.00
65383;PMS5003;51986;52.788;41.368;2023-12-20T07:33:28;28.00;24.00;20.00
65383;PMS5003;51986;52.788;41.368;2023-12-20T07:35:59;28.00;24.00;19.75
65383;PMS5003;51986;52.788;41.368;2023-12-20T07:38:26;25.00;23.00;19.00
65383;PMS5003;51986;52.788;41.368;2023-12-20T07:40:54;30.50;26.00;21.00
65383;PMS5003;51986;52.788;41.368;2023-12-20T07:43:20;30.00;26.00;21.00
65383;PMS5003;51986;52.788;41.368;2023-12-20T07:45:48;31.00;27.00;21.00
65383;PMS5003;51986;52.788;41.368;2023-12-20T07:48:15;30.00;25.00;20.00
65383;PMS5003;51986;52.788;41.368;2023-12-20T07:50:42;28.00;24.00;19.00
65383;PMS5003;51986;52.788;41.368;2023-12-20T07:53:09;31.00;26.00;21.00
65383;PMS5003;51986;52.788;41.368;2023-12-20T07:55:36;33.00;27.50;21.75
65383;PMS5003;51986;52.788;41.368;2023-12-20T07:58:03;31.00;26.00;21.00
65383;PMS5003;51986;52.788;41.368;2023-12-20T08:00:30;29.00;25.00;19.00
65383;PMS5003;51986;52.788;41.368;2023-12-20T08:02:57;31.00;26.50;21.00
65383;PMS5003;51986;52.788;41.368;2023-12-20T08:05:24;29.00;24.75;20.00
65383;PMS5003;51986;52.788;41.368;2023-12-20T08:07:51;26.00;23.00;19.00
65383;PMS5003;51986;52.788;41.368;2023-12-20T08:10:19;26.00;24.00;19.00
65383;PMS5003;51986;52.788;41.368;2023-12-20T08:12:46;28.00;25.00;19.00
65383;PMS5003;51986;52.788;41.368;2023-12-20T08:15:13;29.50;26.00;21.00
65383;PMS5003;51986;52.788;41.368;2023-12-20T08:17:40;27.00;24.00;20.00
65383;PMS5003;51986;52.788;41.368;2023-12-20T08:20:07;26.50;24.00;19.00
65383;PMS5003;51986;52.788;41.368;2023-12-20T08:22:35;28.00;24.50;20.00
65383;PMS5003;51986;52.788;41.368;2023-12-20T08:25:02;30.50;26.00;21.00
65383;PMS5003;51986;52.788;41.368;2023-12-20T08:27:29;31.00;27.00;21.00
65383;PMS5003;51986;52.788;41.368;2023-12-20T08:29:56;27.00;24.00;20.00
65383;PMS5003;51986;52.788;41.368;2023-12-20T08:32:26;27.00;24.00;19.00
65383;PMS5003;51986;52.788;41.368;2023-12-20T08:34:53;28.00;24.00;19.00
65383;PMS5003;51986;52.788;41.368;2023-12-20T08:37:20;27.50;24.00;19.00
65383;PMS5003;51986;52.788;41.368;2023-12-20T08:39:48;28.00;24.00;19.00
65383;PMS5003;51986;52.788;41.368;2023-12-20T08:42:15;29.50;25.50;20.50
65383;PMS5003;51986;52.788;41.368;2023-12-20T08:44:42;27.00;24.00;19.00
65383;PMS5003;51986;52.788;41.368;2023-12-20T08:47:09;29.00;25.00;20.25
65383;PMS5003;51986;52.788;41.368;2023-12-20T08:49:36;30.50;26.00;21.00
65383;PMS5003;51986;52.788;41.368;2023-12-20T08:52:03;28.00;24.00;19.00
65383;PMS5003;51986;52.788;41.368;2023-12-20T08:54:31;27.50;24.00;19.00
65383;PMS5003;51986;52.788;41.368;2023-12-20T08:56:58;29.75;25.50;20.00
65383;PMS5003;51986;52.788;41.368;2023-12-20T08:59:25;30.00;25.00;21.00
65383;PMS5003;51986;52.788;41.368;2023-12-20T09:01:52;27.00;23.00;19.00
65383;PMS5003;51986;52.788;41.368;2023-12-20T09:04:19;29.00;26.00;20.25
65383;PMS5003;51986;52.788;41.368;2023-12-20T09:06:47;27.25;24.00;20.00
65383;PMS5003;51986;52.788;41.368;2023-12-20T09:09:14;28.50;24.25;20.25
65383;PMS5003;51986;52.788;41.368;2023-12-20T09:11:41;27.00;23.50;20.00
65383;PMS5003;51986;52.788;41.368;2023-12-20T09:14:08;23.00;22.00;19.00
65383;PMS5003;51986;52.788;41.368;2023-12-20T09:16:35;26.00;24.00;19.50
65383;PMS5003;51986;52.788;41.368;2023-12-20T09:19:02;27.75;24.00;19.50
65383;PMS5003;51986;52.788;41.368;2023-12-20T09:21:30;28.50;25.00;20.50
65383;PMS5003;51986;52.788;41.368;2023-12-20T09:23:57;26.50;24.00;20.00
65383;PMS5003;51986;52.788;41.368;2023-12-20T09:26:24;27.00;22.50;19.00
65383;PMS5003;51986;52.788;41.368;2023-12-20T09:28:51;24.00;22.00;19.00
65383;PMS5003;51986;52.788;41.368;2023-12-20T09:31:18;24.00;22.00;19.00
65383;PMS5003;51986;52.788;41.368;2023-12-20T09:33:45;26.25;23.00;19.00
65383;PMS5003;51986;52.788;41.368;2023-12-20T09:36:12;27.00;23.00;19.00
65383;PMS5003;51986;52.788;41.368;2023-12-20T09:38:40;25.25;23.00;19.00
65383;PMS5003;51986;52.788;41.368;2023-12-20T09:41:07;28.25;25.00;20.50
65383;PMS5003;51986;52.788;41.368;2023-12-20T09:43:35;26.00;23.00;19.00
65383;PMS5003;51986;52.788;41.368;2023-12-20T09:46:05;25.00;23.00;19.00
65383;PMS5003;51986;52.788;41.368;2023-12-20T09:48:33;24.00;22.00;18.00
65383;PMS5003;51986;52.788;41.368;2023-12-20T09:51:00;26.25;21.75;18.00
65383;PMS5003;51986;52.788;41.368;2023-12-20T09:53:27;28.00;24.00;19.25
65383;PMS5003;51986;52.788;41.368;2023-12-20T09:55:59;26.00;24.00;19.00
65383;PMS5003;51986;52.788;41.368;2023-12-20T09:58:26;25.00;23.00;19.00
65383;PMS5003;51986;52.788;41.368;2023-12-20T10:00:53;25.00;22.00;18.00
65383;PMS5003;51986;52.788;41.368;2023-12-20T10:03:24;25.00;22.00;19.00
65383;PMS5003;51986;52.788;41.368;2023-12-20T10:05:52;25.50;23.00;19.00
65383;PMS5003;51986;52.788;41.368;2023-12-20T10:08:24;28.00;24.75;20.00
65383;PMS5003;51986;52.788;41.368;2023-12-20T10:10:51;27.00;24.00;19.25
65383;PMS5003;51986;52.788;41.368;2023-12-20T10:13:18;27.00;24.00;20.00
65383;PMS5003;51986;52.788;41.368;2023-12-20T10:15:46;29.00;26.00;21.00
65383;PMS5003;51986;52.788;41.368;2023-12-20T10:18:13;25.00;23.00;19.00
65383;PMS5003;51986;52.788;41.368;2023-12-20T10:20:40;24.00;22.00;19.00
65383;PMS5003;51986;52.788;41.368;2023-12-20T10:23:08;23.00;21.00;19.00
65383;PMS5003;51986;52.788;41.368;2023-12-20T10:25:35;27.00;24.75;20.00
65383;PMS5003;51986;52.788;41.368;2023-12-20T10:28:12;28.25;24.00;20.00
65383;PMS5003;51986;52.788;41.368;2023-12-20T10:30:42;29.00;24.00;20.00
65383;PMS5003;51986;52.788;41.368;2023-12-20T10:33:10;29.50;24.75;19.50
65383;PMS5003;51986;52.788;41.368;2023-12-20T10:35:38;28.00;24.00;20.00
65383;PMS5003;51986;52.788;41.368;2023-12-20T10:38:11;30.00;25.00;20.00
65383;PMS5003;51986;52.788;41.368;2023-12-20T10:40:39;27.00;24.00;19.00
65383;PMS5003;51986;52.788;41.368;2023-12-20T10:43:06;25.00;23.00;19.00
65383;PMS5003;51986;52.788;41.368;2023-12-20T10:45:35;24.25;22.25;18.50
65383;PMS5003;51986;52.788;41.368;2023-12-20T10:48:03;25.50;22.00;19.00
65383;PMS5003;51986;52.788;41.368;2023-12-20T10:50:32;25.00;23.00;19.00
65383;PMS5003;51986;52.788;41.368;2023-12-20T10:53:02;28.00;24.00;19.75
65383;PMS5003;51986;52.788;41.368;2023-12-20T10:55:30;30.00;25.00;21.00
65383;PMS5003;51986;52.788;41.368;2023-12-20T10:58:00;29.50;25.00;20.75
65383;PMS5003;51986;52.788;41.368;2023-12-20T11:00:31;30.00;26.00;21.00
65383;PMS5003;51986;52.788;41.368;2023-12-20T11:03:02;28.00;25.00;20.00
65383;PMS5003;51986;52.788;41.368;2023-12-20T11:11:10;27.00;23.75;19.00
65383;PMS5003;51986;52.788;41.368;2023-12-20T11:13:55;28.25;25.00;20.00
65383;PMS5003;51986;52.788;41.368;2023-12-20T11:16:27;31.00;26.75;20.00
65383;PMS5003;51986;52.788;41.368;2023-12-20T11:19:07;32.00;27.25;21.00
65383;PMS5003;51986;52.788;41.368;2023-12-20T11:21:34;33.00;28.00;21.25
65383;PMS5003;51986;52.788;41.368;2023-12-20T11:24:02;32.00;27.00;21.00
65383;PMS5003;51986;52.788;41.368;2023-12-20T11:26:31;32.00;27.00;21.00
65383;PMS5003;51986;52.788;41.368;2023-12-20T11:31:56;32.00;27.75;21.00
65383;PMS5003;51986;52.788;41.368;2023-12-20T11:34:26;30.00;25.50;21.00
65383;PMS5003;51986;52.788;41.368;2023-12-20T11:36:58;29.00;24.00;20.00
65383;PMS5003;51986;52.788;41.368;2023-12-20T11:39:29;32.00;27.00;21.25
65383;PMS5003;51986;52.788;41.368;2023-12-20T11:41:58;29.00;24.25;19.25
65383;PMS5003;51986;52.788;41.368;2023-12-20T11:44:31;27.00;23.00;19.00
65383;PMS5003;51986;52.788;41.368;2023-12-20T11:46:58;30.00;25.25;20.00
65383;PMS5003;51986;52.788;41.368;2023-12-20T11:49:26;32.00;28.00;21.00
65383;PMS5003;51986;52.788;41.368;2023-12-20T11:51:53;28.00;24.50;19.00
65383;PMS5003;51986;52.788;41.368;2023-12-20T11:54:20;29.00;24.00;19.00
65383;PMS5003;51986;52.788;41.368;2023-12-20T11:56:47;31.50;26.50;20.50
65383;PMS5003;51986;52.788;41.368;2023-12-20T11:59:14;34.00;29.00;21.50
65383;PMS5003;51986;52.788;41.368;2023-12-20T12:01:49;34.00;29.00;22.00
65383;PMS5003;51986;52.788;41.368;2023-12-20T12:04:17;34.00;29.00;22.00
65383;PMS5003;51986;52.788;41.368;2023-12-20T12:06:45;33.00;27.25;21.00
65383;PMS5003;51986;52.788;41.368;2023-12-20T12:09:12;33.00;27.25;21.00
65383;PMS5003;51986;52.788;41.368;2023-12-20T12:11:40;34.00;28.00;21.50
65383;PMS5003;51986;52.788;41.368;2023-12-20T12:14:07;31.50;26.00;20.75
65383;PMS5003;51986;52.788;41.368;2023-12-20T12:16:34;27.00;23.00;18.00
65383;PMS5003;51986;52.788;41.368;2023-12-20T12:19:01;29.75;23.50;18.75
65383;PMS5003;51986;52.788;41.368;2023-12-20T12:21:29;29.00;25.00;18.00
65383;PMS5003;51986;52.788;41.368;2023-12-20T12:24:06;32.00;27.00;21.00
65383;PMS5003;51986;52.788;41.368;2023-12-20T12:26:37;30.00;25.25;20.00
65383;PMS5003;51986;52.788;41.368;2023-12-20T12:29:07;32.75;26.00;21.00
65383;PMS5003;51986;52.788;41.368;2023-12-20T12:31:34;31.00;25.00;19.00
65383;PMS5003;51986;52.788;41.368;2023-12-20T12:34:02;33.00;26.50;21.00
65383;PMS5003;51986;52.788;41.368;2023-12-20T12:36:29;34.00;28.00;21.00
65383;PMS5003;51986;52.788;41.368;2023-12-20T12:38:57;33.00;27.00;21.00
65383;PMS5003;51986;52.788;41.368;2023-12-20T12:41:24;34.00;28.00;22.00
65383;PMS5003;51986;52.788;41.368;2023-12-20T12:43:51;31.00;25.00;20.00
65383;PMS5003;51986;52.788;41.368;2023-12-20T12:46:18;33.00;27.00;21.00
65383;PMS5003;51986;52.788;41.368;2023-12-20T12:48:45;34.75;28.00;22.00
65383;PMS5003;51986;52.788;41.368;2023-12-20T12:51:13;36.50;29.00;22.00
65383;PMS5003;51986;52.788;41.368;2023-12-20T12:53:41;37.00;30.00;22.00
65383;PMS5003;51986;52.788;41.368;2023-12-20T12:56:08;36.00;30.00;22.00
65383;PMS5003;51986;52.788;41.368;2023-12-20T12:58:35;37.00;29.00;22.75
65383;PMS5003;51986;52.788;41.368;2023-12-20T13:01:02;34.75;27.50;21.00
65383;PMS5003;51986;52.788;41.368;2023-12-20T13:03:30;32.00;25.00;19.00
65383;PMS5003;51986;52.788;41.368;2023-12-20T13:05:57;34.75;29.00;21.00
65383;PMS5003;51986;52.788;41.368;2023-12-20T13:08:24;37.00;30.00;22.75
65383;PMS5003;51986;52.788;41.368;2023-12-20T13:10:52;37.50;31.00;23.00
65383;PMS5003;51986;52.788;41.368;2023-12-20T13:13:19;36.00;29.00;22.00
65383;PMS5003;51986;52.788;41.368;2023-12-20T13:15:46;36.50;30.00;22.00
65383;PMS5003;51986;52.788;41.368;2023-12-20T13:18:13;35.75;29.00;22.00
65383;PMS5003;51986;52.788;41.368;2023-12-20T13:20:41;39.00;31.00;23.00
65383;PMS5003;51986;52.788;41.368;2023-12-20T13:23:08;38.00;30.00;22.00
65383;PMS5003;51986;52.788;41.368;2023-12-20T13:25:35;36.00;29.00;22.00
65383;PMS5003;51986;52.788;41.368;2023-12-20T13:28:02;34.00;28.00;21.00
65383;PMS5003;51986;52.788;41.368;2023-12-20T13:30:29;31.00;25.25;19.00
65383;PMS5003;51986;52.788;41.368;2023-12-20T13:32:56;32.75;26.25;19.75
65383;PMS5003;51986;52.788;41.368;2023-12-20T13:35:23;31.50;27.00;20.00
65383;PMS5003;51986;52.788;41.368;2023-12-20T13:37:51;35.25;29.25;21.75
65383;PMS5003;51986;52.788;41.368;2023-12-20T13:40:18;33.75;27.00;21.00
65383;PMS5003;51986;52.788;41.368;2023-12-20T13:42:45;33.00;26.00;19.00
65383;PMS5003;51986;52.788;41.368;2023-12-20T13:45:12;35.75;28.25;21.00